sensor_id;sensor_type;location;lat;lon;timestamp;temperature;humidity
61641;HTU21D;62201;49.966;8.342;2024-02-26T00:00:37;7.62;85.67
61641;HTU21D;62201;49.966;8.342;2024-02-26T00:03:02;7.59;86.10
61641;HTU21D;62201;49.966;8.342;2024-02-26T00:05:28;7.57;86.25
61641;HTU21D;62201;49.966;8.342;2024-02-26T00:07:53;7.60;85.85
61641;HTU21D;62201;49.966;8.342;2024-02-26T00:10:19;7.58;86.23
61641;HTU21D;62201;49.966;8.342;2024-02-26T00:12:44;7.55;86.72
61641;HTU21D;62201;49.966;8.342;2024-02-26T00:15:10;7.49;87.25
61641;HTU21D;62201;49.966;8.342;2024-02-26T00:17:36;7.52;87.23
61641;HTU21D;62201;49.966;8.342;2024-02-26T00:20:02;7.52;87.25
61641;HTU21D;62201;49.966;8.342;2024-02-26T00:22:30;7.58;86.67
61641;HTU21D;62201;49.966;8.342;2024-02-26T00:24:55;7.59;86.64
61641;HTU21D;62201;49.966;8.342;2024-02-26T00:27:21;7.58;86.75
61641;HTU21D;62201;49.966;8.342;2024-02-26T00:29:46;7.61;86.69
61641;HTU21D;62201;49.966;8.342;2024-02-26T00:32:11;7.62;86.51
61641;HTU21D;62201;49.966;8.342;2024-02-26T00:34:37;7.61;86.53
61641;HTU21D;62201;49.966;8.342;2024-02-26T00:37:02;7.65;86.48
61641;HTU21D;62201;49.966;8.342;2024-02-26T00:39:27;7.63;86.81
61641;HTU21D;62201;49.966;8.342;2024-02-26T00:41:53;7.59;87.13
61641;HTU21D;62201;49.966;8.342;2024-02-26T00:44:18;7.56;87.56
61641;HTU21D;62201;49.966;8.342;2024-02-26T00:46:43;7.53;88.19
61641;HTU21D;62201;49.966;8.342;2024-02-26T00:49:09;7.58;87.25
61641;HTU21D;62201;49.966;8.342;2024-02-26T00:51:34;7.52;88.39
61641;HTU21D;62201;49.966;8.342;2024-02-26T00:54:00;7.57;87.92
61641;HTU21D;62201;49.966;8.342;2024-02-26T00:56:25;7.58;87.85
61641;HTU21D;62201;49.966;8.342;2024-02-26T00:58:51;7.64;87.52
61641;HTU21D;62201;49.966;8.342;2024-02-26T01:01:17;7.76;86.41
61641;HTU21D;62201;49.966;8.342;2024-02-26T01:03:42;7.65;87.15
61641;HTU21D;62201;49.966;8.342;2024-02-26T01:06:07;7.69;86.69
61641;HTU21D;62201;49.966;8.342;2024-02-26T01:08:33;7.64;87.20
61641;HTU21D;62201;49.966;8.342;2024-02-26T01:11:01;7.64;87.44
61641;HTU21D;62201;49.966;8.342;2024-02-26T01:13:26;7.62;87.25
61641;HTU21D;62201;49.966;8.342;2024-02-26T01:15:51;7.62;87.42
61641;HTU21D;62201;49.966;8.342;2024-02-26T01:18:17;7.65;87.13
61641;HTU21D;62201;49.966;8.342;2024-02-26T01:20:42;7.67;87.01
61641;HTU21D;62201;49.966;8.342;2024-02-26T01:23:07;7.69;86.75
61641;HTU21D;62201;49.966;8.342;2024-02-26T01:25:33;7.62;87.41
61641;HTU21D;62201;49.966;8.342;2024-02-26T01:27:58;7.64;87.02
61641;HTU21D;62201;49.966;8.342;2024-02-26T01:30:24;7.67;87.00
61641;HTU21D;62201;49.966;8.342;2024-02-26T01:32:49;7.70;86.61
61641;HTU21D;62201;49.966;8.342;2024-02-26T01:35:14;7.68;87.22
61641;HTU21D;62201;49.966;8.342;2024-02-26T01:37:40;7.61;87.57
61641;HTU21D;62201;49.966;8.342;2024-02-26T01:40:07;7.58;87.83
61641;HTU21D;62201;49.966;8.342;2024-02-26T01:42:32;7.69;86.79
61641;HTU21D;62201;49.966;8.342;2024-02-26T01:44:59;7.69;86.70
61641;HTU21D;62201;49.966;8.342;2024-02-26T01:47:25;7.73;86.05
61641;HTU21D;62201;49.966;8.342;2024-02-26T01:49:54;7.72;86.37
61641;HTU21D;62201;49.966;8.342;2024-02-26T01:52:20;7.73;86.40
61641;HTU21D;62201;49.966;8.342;2024-02-26T01:54:46;7.71;86.64
61641;HTU21D;62201;49.966;8.342;2024-02-26T01:57:12;7.69;87.30
61641;HTU21D;62201;49.966;8.342;2024-02-26T01:59:39;7.69;86.93
61641;HTU21D;62201;49.966;8.342;2024-02-26T02:02:07;7.68;86.93
61641;HTU21D;62201;49.966;8.342;2024-02-26T02:04:34;7.67;87.16
61641;HTU21D;62201;49.966;8.342;2024-02-26T02:07:01;7.64;87.34
61641;HTU21D;62201;49.966;8.342;2024-02-26T02:09:27;7.67;87.09
61641;HTU21D;62201;49.966;8.342;2024-02-26T02:11:53;7.64;87.22
61641;HTU21D;62201;49.966;8.342;2024-02-26T02:14:18;7.61;87.63
61641;HTU21D;62201;49.966;8.342;2024-02-26T02:16:44;7.64;87.37
61641;HTU21D;62201;49.966;8.342;2024-02-26T02:19:09;7.69;86.61
61641;HTU21D;62201;49.966;8.342;2024-02-26T02:21:34;7.67;86.80
61641;HTU21D;62201;49.966;8.342;2024-02-26T02:24:00;7.64;87.02
61641;HTU21D;62201;49.966;8.342;2024-02-26T02:26:25;7.67;86.73
61641;HTU21D;62201;49.966;8.342;2024-02-26T02:28:51;7.67;86.59
61641;HTU21D;62201;49.966;8.342;2024-02-26T02:31:16;7.68;86.65
61641;HTU21D;62201;49.966;8.342;2024-02-26T02:33:42;7.67;86.86
61641;HTU21D;62201;49.966;8.342;2024-02-26T02:36:08;7.64;86.94
61641;HTU21D;62201;49.966;8.342;2024-02-26T02:38:38;7.64;87.04
61641;HTU21D;62201;49.966;8.342;2024-02-26T02:41:13;7.61;87.35
61641;HTU21D;62201;49.966;8.342;2024-02-26T02:43:38;7.57;87.95
61641;HTU21D;62201;49.966;8.342;2024-02-26T02:46:04;7.47;88.96
61641;HTU21D;62201;49.966;8.342;2024-02-26T02:48:29;7.44;90.37
61641;HTU21D;62201;49.966;8.342;2024-02-26T02:50:55;7.54;87.85
61641;HTU21D;62201;49.966;8.342;2024-02-26T02:53:21;7.50;88.98
61641;HTU21D;62201;49.966;8.342;2024-02-26T02:55:46;7.59;87.41
61641;HTU21D;62201;49.966;8.342;2024-02-26T02:58:11;7.59;87.70
61641;HTU21D;62201;49.966;8.342;2024-02-26T03:00:37;7.50;88.85
61641;HTU21D;62201;49.966;8.342;2024-02-26T03:03:02;7.47;89.18
61641;HTU21D;62201;49.966;8.342;2024-02-26T03:05:28;7.46;89.49
61641;HTU21D;62201;49.966;8.342;2024-02-26T03:07:53;7.47;89.63
61641;HTU21D;62201;49.966;8.342;2024-02-26T03:10:18;7.53;89.62
61641;HTU21D;62201;49.966;8.342;2024-02-26T03:12:45;7.54;89.86
61641;HTU21D;62201;49.966;8.342;2024-02-26T03:15:10;7.53;89.34
61641;HTU21D;62201;49.966;8.342;2024-02-26T03:17:36;7.53;90.24
61641;HTU21D;62201;49.966;8.342;2024-02-26T03:20:02;7.54;89.82
61641;HTU21D;62201;49.966;8.342;2024-02-26T03:22:30;7.49;91.05
61641;HTU21D;62201;49.966;8.342;2024-02-26T03:24:56;7.48;90.87
61641;HTU21D;62201;49.966;8.342;2024-02-26T03:27:21;7.42;92.98
61641;HTU21D;62201;49.966;8.342;2024-02-26T03:29:46;7.30;95.67
61641;HTU21D;62201;49.966;8.342;2024-02-26T03:32:13;7.18;101.42
61641;HTU21D;62201;49.966;8.342;2024-02-26T03:34:38;6.98;104.13
61641;HTU21D;62201;49.966;8.342;2024-02-26T03:37:05;6.87;105.05
61641;HTU21D;62201;49.966;8.342;2024-02-26T03:39:36;6.79;108.15
61641;HTU21D;62201;49.966;8.342;2024-02-26T03:42:01;6.82;108.05
61641;HTU21D;62201;49.966;8.342;2024-02-26T03:44:27;6.93;103.01
61641;HTU21D;62201;49.966;8.342;2024-02-26T03:46:52;6.91;100.67
61641;HTU21D;62201;49.966;8.342;2024-02-26T03:49:18;6.90;105.14
61641;HTU21D;62201;49.966;8.342;2024-02-26T03:51:43;6.79;104.18
61641;HTU21D;62201;49.966;8.342;2024-02-26T03:54:08;6.72;115.31
61641;HTU21D;62201;49.966;8.342;2024-02-26T03:56:34;6.67;115.65
61641;HTU21D;62201;49.966;8.342;2024-02-26T03:58:59;6.57;115.73
61641;HTU21D;62201;49.966;8.342;2024-02-26T04:01:27;6.55;115.62
61641;HTU21D;62201;49.966;8.342;2024-02-26T04:03:52;6.51;115.57
61641;HTU21D;62201;49.966;8.342;2024-02-26T04:06:18;6.46;117.49
61641;HTU21D;62201;49.966;8.342;2024-02-26T04:08:46;6.41;118.99
61641;HTU21D;62201;49.966;8.342;2024-02-26T04:11:11;6.44;118.37
61641;HTU21D;62201;49.966;8.342;2024-02-26T04:13:37;6.35;118.99
61641;HTU21D;62201;49.966;8.342;2024-02-26T04:16:04;6.31;118.99
61641;HTU21D;62201;49.966;8.342;2024-02-26T04:18:31;6.29;118.99
61641;HTU21D;62201;49.966;8.342;2024-02-26T04:20:56;6.22;118.99
61641;HTU21D;62201;49.966;8.342;2024-02-26T04:23:22;6.24;118.99
61641;HTU21D;62201;49.966;8.342;2024-02-26T04:25:47;6.21;118.99
61641;HTU21D;62201;49.966;8.342;2024-02-26T04:28:13;6.20;118.99
61641;HTU21D;62201;49.966;8.342;2024-02-26T04:30:38;6.17;118.99
61641;HTU21D;62201;49.966;8.342;2024-02-26T04:33:06;6.20;118.99
61641;HTU21D;62201;49.966;8.342;2024-02-26T04:35:32;6.20;118.99
61641;HTU21D;62201;49.966;8.342;2024-02-26T04:37:57;6.21;118.99
61641;HTU21D;62201;49.966;8.342;2024-02-26T04:40:23;6.20;118.99
61641;HTU21D;62201;49.966;8.342;2024-02-26T04:42:49;6.21;118.99
61641;HTU21D;62201;49.966;8.342;2024-02-26T04:45:14;6.19;118.99
61641;HTU21D;62201;49.966;8.342;2024-02-26T04:47:40;6.20;118.99
61641;HTU21D;62201;49.966;8.342;2024-02-26T04:50:05;6.19;118.99
61641;HTU21D;62201;49.966;8.342;2024-02-26T04:52:31;6.15;118.99
61641;HTU21D;62201;49.966;8.342;2024-02-26T04:54:56;6.19;118.99
61641;HTU21D;62201;49.966;8.342;2024-02-26T04:57:22;6.19;118.99
61641;HTU21D;62201;49.966;8.342;2024-02-26T04:59:47;6.17;118.99
61641;HTU21D;62201;49.966;8.342;2024-02-26T05:02:13;6.15;118.99
61641;HTU21D;62201;49.966;8.342;2024-02-26T05:04:38;6.15;118.99
61641;HTU21D;62201;49.966;8.342;2024-02-26T05:07:04;6.14;118.99
61641;HTU21D;62201;49.966;8.342;2024-02-26T05:09:29;6.16;118.99
61641;HTU21D;62201;49.966;8.342;2024-02-26T05:11:55;6.15;118.99
61641;HTU21D;62201;49.966;8.342;2024-02-26T05:14:20;6.13;118.99
61641;HTU21D;62201;49.966;8.342;2024-02-26T05:16:47;6.14;118.99
61641;HTU21D;62201;49.966;8.342;2024-02-26T05:19:12;6.12;118.99
61641;HTU21D;62201;49.966;8.342;2024-02-26T05:21:37;6.11;118.99
61641;HTU21D;62201;49.966;8.342;2024-02-26T05:24:03;6.11;118.99
61641;HTU21D;62201;49.966;8.342;2024-02-26T05:26:28;6.10;118.99
61641;HTU21D;62201;49.966;8.342;2024-02-26T05:28:54;6.11;118.99
61641;HTU21D;62201;49.966;8.342;2024-02-26T05:31:24;6.12;118.99
61641;HTU21D;62201;49.966;8.342;2024-02-26T05:33:50;6.10;118.99
61641;HTU21D;62201;49.966;8.342;2024-02-26T05:36:22;6.10;118.99
61641;HTU21D;62201;49.966;8.342;2024-02-26T05:38:48;6.13;118.99
61641;HTU21D;62201;49.966;8.342;2024-02-26T05:41:17;6.13;118.99
61641;HTU21D;62201;49.966;8.342;2024-02-26T05:43:50;6.12;118.99
61641;HTU21D;62201;49.966;8.342;2024-02-26T05:46:17;6.11;118.99
61641;HTU21D;62201;49.966;8.342;2024-02-26T05:48:44;6.10;118.99
61641;HTU21D;62201;49.966;8.342;2024-02-26T05:51:09;6.10;118.99
61641;HTU21D;62201;49.966;8.342;2024-02-26T05:53:35;6.10;118.99
61641;HTU21D;62201;49.966;8.342;2024-02-26T05:56:00;6.08;118.99
61641;HTU21D;62201;49.966;8.342;2024-02-26T05:58:25;6.04;118.99
61641;HTU21D;62201;49.966;8.342;2024-02-26T06:00:51;6.05;118.99
61641;HTU21D;62201;49.966;8.342;2024-02-26T06:03:16;6.04;118.99
61641;HTU21D;62201;49.966;8.342;2024-02-26T06:05:42;6.04;118.99
61641;HTU21D;62201;49.966;8.342;2024-02-26T06:08:08;6.07;118.99
61641;HTU21D;62201;49.966;8.342;2024-02-26T06:10:33;6.02;118.99
61641;HTU21D;62201;49.966;8.342;2024-02-26T06:12:59;6.01;118.99
61641;HTU21D;62201;49.966;8.342;2024-02-26T06:15:24;6.04;118.99
61641;HTU21D;62201;49.966;8.342;2024-02-26T06:17:49;6.06;118.99
61641;HTU21D;62201;49.966;8.342;2024-02-26T06:20:15;6.02;118.99
61641;HTU21D;62201;49.966;8.342;2024-02-26T06:22:41;6.01;118.99
61641;HTU21D;62201;49.966;8.342;2024-02-26T06:25:07;5.99;118.99
61641;HTU21D;62201;49.966;8.342;2024-02-26T06:27:32;5.98;118.99
61641;HTU21D;62201;49.966;8.342;2024-02-26T06:29:58;5.99;118.99
61641;HTU21D;62201;49.966;8.342;2024-02-26T06:32:23;6.00;118.99
61641;HTU21D;62201;49.966;8.342;2024-02-26T06:34:49;5.96;118.99
61641;HTU21D;62201;49.966;8.342;2024-02-26T06:37:14;6.00;118.99
61641;HTU21D;62201;49.966;8.342;2024-02-26T06:39:40;5.96;118.99
61641;HTU21D;62201;49.966;8.342;2024-02-26T06:42:06;5.95;118.99
61641;HTU21D;62201;49.966;8.342;2024-02-26T06:44:31;5.94;118.99
61641;HTU21D;62201;49.966;8.342;2024-02-26T06:47:00;5.95;118.99
61641;HTU21D;62201;49.966;8.342;2024-02-26T06:49:26;5.95;118.99
61641;HTU21D;62201;49.966;8.342;2024-02-26T06:51:52;5.92;118.99
61641;HTU21D;62201;49.966;8.342;2024-02-26T06:54:17;5.96;118.99
61641;HTU21D;62201;49.966;8.342;2024-02-26T06:56:43;5.97;118.99
61641;HTU21D;62201;49.966;8.342;2024-02-26T06:59:08;5.97;118.99
61641;HTU21D;62201;49.966;8.342;2024-02-26T07:01:34;5.97;118.99
61641;HTU21D;62201;49.966;8.342;2024-02-26T07:03:59;5.99;118.99
61641;HTU21D;62201;49.966;8.342;2024-02-26T07:06:26;5.99;118.99
61641;HTU21D;62201;49.966;8.342;2024-02-26T07:08:52;5.97;118.99
61641;HTU21D;62201;49.966;8.342;2024-02-26T07:11:17;5.94;118.99
61641;HTU21D;62201;49.966;8.342;2024-02-26T07:13:47;5.96;118.99
61641;HTU21D;62201;49.966;8.342;2024-02-26T07:16:14;5.98;118.99
61641;HTU21D;62201;49.966;8.342;2024-02-26T07:18:40;5.99;118.99
61641;HTU21D;62201;49.966;8.342;2024-02-26T07:21:05;5.90;118.99
61641;HTU21D;62201;49.966;8.342;2024-02-26T07:23:31;5.95;118.99
61641;HTU21D;62201;49.966;8.342;2024-02-26T07:25:59;6.02;118.99
61641;HTU21D;62201;49.966;8.342;2024-02-26T07:28:25;5.97;118.99
61641;HTU21D;62201;49.966;8.342;2024-02-26T07:30:50;5.94;118.99
61641;HTU21D;62201;49.966;8.342;2024-02-26T07:33:16;5.95;118.99
61641;HTU21D;62201;49.966;8.342;2024-02-26T07:35:41;5.95;118.99
61641;HTU21D;62201;49.966;8.342;2024-02-26T07:38:07;5.96;118.99
61641;HTU21D;62201;49.966;8.342;2024-02-26T07:40:32;5.94;118.99
61641;HTU21D;62201;49.966;8.342;2024-02-26T07:42:58;5.96;118.99
61641;HTU21D;62201;49.966;8.342;2024-02-26T07:45:23;5.99;118.99
61641;HTU21D;62201;49.966;8.342;2024-02-26T07:47:48;5.99;118.99
61641;HTU21D;62201;49.966;8.342;2024-02-26T07:50:14;6.00;118.99
61641;HTU21D;62201;49.966;8.342;2024-02-26T07:52:40;6.10;118.99
61641;HTU21D;62201;49.966;8.342;2024-02-26T07:55:06;6.02;118.99
61641;HTU21D;62201;49.966;8.342;2024-02-26T07:57:35;6.01;118.99
61641;HTU21D;62201;49.966;8.342;2024-02-26T08:00:01;6.19;118.99
61641;HTU21D;62201;49.966;8.342;2024-02-26T08:02:26;6.12;118.99
61641;HTU21D;62201;49.966;8.342;2024-02-26T08:04:52;5.96;118.99
61641;HTU21D;62201;49.966;8.342;2024-02-26T08:07:17;6.01;118.99
61641;HTU21D;62201;49.966;8.342;2024-02-26T08:09:43;6.02;118.99
61641;HTU21D;62201;49.966;8.342;2024-02-26T08:12:08;5.94;118.99
61641;HTU21D;62201;49.966;8.342;2024-02-26T08:14:34;6.06;118.99
61641;HTU21D;62201;49.966;8.342;2024-02-26T08:16:59;6.10;118.99
61641;HTU21D;62201;49.966;8.342;2024-02-26T08:19:26;6.00;118.99
61641;HTU21D;62201;49.966;8.342;2024-02-26T08:21:52;6.04;118.99
61641;HTU21D;62201;49.966;8.342;2024-02-26T08:24:17;6.16;118.99
61641;HTU21D;62201;49.966;8.342;2024-02-26T08:26:43;6.14;118.99
61641;HTU21D;62201;49.966;8.342;2024-02-26T08:29:08;6.09;118.99
61641;HTU21D;62201;49.966;8.342;2024-02-26T08:31:33;6.12;118.99
61641;HTU21D;62201;49.966;8.342;2024-02-26T08:34:03;6.02;118.99
61641;HTU21D;62201;49.966;8.342;2024-02-26T08:36:28;6.10;118.99
61641;HTU21D;62201;49.966;8.342;2024-02-26T08:38:54;6.14;118.99
61641;HTU21D;62201;49.966;8.342;2024-02-26T08:41:19;6.20;118.99
61641;HTU21D;62201;49.966;8.342;2024-02-26T08:43:44;6.17;118.99
61641;HTU21D;62201;49.966;8.342;2024-02-26T08:46:10;6.38;118.99
61641;HTU21D;62201;49.966;8.342;2024-02-26T08:48:38;6.28;118.99
61641;HTU21D;62201;49.966;8.342;2024-02-26T08:51:06;6.20;118.99
61641;HTU21D;62201;49.966;8.342;2024-02-26T08:53:32;6.25;118.99
61641;HTU21D;62201;49.966;8.342;2024-02-26T08:55:57;6.16;118.99
61641;HTU21D;62201;49.966;8.342;2024-02-26T08:58:22;6.17;118.99
61641;HTU21D;62201;49.966;8.342;2024-02-26T09:00:48;6.13;118.99
61641;HTU21D;62201;49.966;8.342;2024-02-26T09:03:13;6.12;118.99
61641;HTU21D;62201;49.966;8.342;2024-02-26T09:05:39;6.15;118.99
61641;HTU21D;62201;49.966;8.342;2024-02-26T09:08:04;6.21;118.99
61641;HTU21D;62201;49.966;8.342;2024-02-26T09:10:30;6.27;118.99
61641;HTU21D;62201;49.966;8.342;2024-02-26T09:12:55;6.38;118.99
61641;HTU21D;62201;49.966;8.342;2024-02-26T09:15:21;6.45;118.99
61641;HTU21D;62201;49.966;8.342;2024-02-26T09:17:46;6.46;118.99
61641;HTU21D;62201;49.966;8.342;2024-02-26T09:20:15;6.74;118.99
61641;HTU21D;62201;49.966;8.342;2024-02-26T09:22:45;6.88;118.99
61641;HTU21D;62201;49.966;8.342;2024-02-26T09:25:10;6.73;118.99
61641;HTU21D;62201;49.966;8.342;2024-02-26T09:27:36;6.82;118.99
61641;HTU21D;62201;49.966;8.342;2024-02-26T09:30:01;6.93;118.99
61641;HTU21D;62201;49.966;8.342;2024-02-26T09:32:26;6.82;118.99
61641;HTU21D;62201;49.966;8.342;2024-02-26T09:34:52;6.94;118.99
61641;HTU21D;62201;49.966;8.342;2024-02-26T09:37:17;6.81;118.99
61641;HTU21D;62201;49.966;8.342;2024-02-26T09:39:43;7.09;118.99
61641;HTU21D;62201;49.966;8.342;2024-02-26T09:42:09;7.00;118.99
61641;HTU21D;62201;49.966;8.342;2024-02-26T09:44:40;7.23;118.99
61641;HTU21D;62201;49.966;8.342;2024-02-26T09:47:09;6.89;118.99
61641;HTU21D;62201;49.966;8.342;2024-02-26T09:49:36;6.91;118.99
61641;HTU21D;62201;49.966;8.342;2024-02-26T09:52:04;7.28;118.99
61641;HTU21D;62201;49.966;8.342;2024-02-26T09:54:30;7.01;118.99
61641;HTU21D;62201;49.966;8.342;2024-02-26T09:56:59;7.48;118.99
61641;HTU21D;62201;49.966;8.342;2024-02-26T09:59:27;7.16;118.99
61641;HTU21D;62201;49.966;8.342;2024-02-26T10:01:53;7.61;118.99
61641;HTU21D;62201;49.966;8.342;2024-02-26T10:04:20;7.23;118.99
61641;HTU21D;62201;49.966;8.342;2024-02-26T10:06:46;7.69;118.99
61641;HTU21D;62201;49.966;8.342;2024-02-26T10:09:12;8.33;118.99
61641;HTU21D;62201;49.966;8.342;2024-02-26T10:11:41;7.74;118.99
61641;HTU21D;62201;49.966;8.342;2024-02-26T10:14:08;7.55;118.99
61641;HTU21D;62201;49.966;8.342;2024-02-26T10:16:33;7.56;118.99
61641;HTU21D;62201;49.966;8.342;2024-02-26T10:18:59;7.47;118.99
61641;HTU21D;62201;49.966;8.342;2024-02-26T10:21:25;7.64;118.99
61641;HTU21D;62201;49.966;8.342;2024-02-26T10:23:50;7.92;118.99
61641;HTU21D;62201;49.966;8.342;2024-02-26T10:26:16;7.94;118.99
61641;HTU21D;62201;49.966;8.342;2024-02-26T10:28:42;7.86;118.99
61641;HTU21D;62201;49.966;8.342;2024-02-26T10:31:09;7.81;118.99
61641;HTU21D;62201;49.966;8.342;2024-02-26T10:33:35;8.33;118.99
61641;HTU21D;62201;49.966;8.342;2024-02-26T10:36:05;8.14;118.99
61641;HTU21D;62201;49.966;8.342;2024-02-26T10:38:32;8.13;118.99
61641;HTU21D;62201;49.966;8.342;2024-02-26T10:40:58;8.22;118.99
61641;HTU21D;62201;49.966;8.342;2024-02-26T10:43:25;7.97;118.99
61641;HTU21D;62201;49.966;8.342;2024-02-26T10:45:50;8.26;118.99
61641;HTU21D;62201;49.966;8.342;2024-02-26T10:48:17;8.29;118.84
61641;HTU21D;62201;49.966;8.342;2024-02-26T10:50:43;8.05;118.58
61641;HTU21D;62201;49.966;8.342;2024-02-26T10:53:20;8.20;118.24
61641;HTU21D;62201;49.966;8.342;2024-02-26T10:55:55;8.36;118.99
61641;HTU21D;62201;49.966;8.342;2024-02-26T10:58:21;8.21;118.92
61641;HTU21D;62201;49.966;8.342;2024-02-26T11:00:50;8.05;117.79
61641;HTU21D;62201;49.966;8.342;2024-02-26T11:03:15;8.33;117.60
61641;HTU21D;62201;49.966;8.342;2024-02-26T11:05:44;8.41;115.51
61641;HTU21D;62201;49.966;8.342;2024-02-26T11:08:11;8.33;116.60
61641;HTU21D;62201;49.966;8.342;2024-02-26T11:10:36;8.38;116.38
61641;HTU21D;62201;49.966;8.342;2024-02-26T11:13:05;8.33;117.79
61641;HTU21D;62201;49.966;8.342;2024-02-26T11:15:32;8.41;116.38
61641;HTU21D;62201;49.966;8.342;2024-02-26T11:17:59;8.64;116.54
61641;HTU21D;62201;49.966;8.342;2024-02-26T11:20:28;8.82;116.88
61641;HTU21D;62201;49.966;8.342;2024-02-26T11:22:53;8.58;116.99
61641;HTU21D;62201;49.966;8.342;2024-02-26T11:25:19;8.64;116.09
61641;HTU21D;62201;49.966;8.342;2024-02-26T11:27:49;8.71;117.46
61641;HTU21D;62201;49.966;8.342;2024-02-26T11:30:17;8.76;114.77
61641;HTU21D;62201;49.966;8.342;2024-02-26T11:32:44;8.75;114.35
61641;HTU21D;62201;49.966;8.342;2024-02-26T11:35:11;8.78;114.62
61641;HTU21D;62201;49.966;8.342;2024-02-26T11:37:41;8.92;114.16
61641;HTU21D;62201;49.966;8.342;2024-02-26T11:40:11;9.21;110.84
61641;HTU21D;62201;49.966;8.342;2024-02-26T11:42:43;9.30;112.00
61641;HTU21D;62201;49.966;8.342;2024-02-26T11:48:03;10.55;107.72
61641;HTU21D;62201;49.966;8.342;2024-02-26T11:50:36;9.88;108.41
61641;HTU21D;62201;49.966;8.342;2024-02-26T11:55:46;9.86;108.68
61641;HTU21D;62201;49.966;8.342;2024-02-26T11:58:12;9.65;108.83
61641;HTU21D;62201;49.966;8.342;2024-02-26T12:00:42;10.41;107.48
61641;HTU21D;62201;49.966;8.342;2024-02-26T12:03:08;9.88;108.49
61641;HTU21D;62201;49.966;8.342;2024-02-26T12:05:35;9.81;107.73
61641;HTU21D;62201;49.966;8.342;2024-02-26T12:08:04;9.90;107.18
61641;HTU21D;62201;49.966;8.342;2024-02-26T12:10:39;9.60;109.81
61641;HTU21D;62201;49.966;8.342;2024-02-26T12:13:12;10.03;108.71
61641;HTU21D;62201;49.966;8.342;2024-02-26T12:15:43;9.62;108.61
61641;HTU21D;62201;49.966;8.342;2024-02-26T12:18:10;9.42;109.49
61641;HTU21D;62201;49.966;8.342;2024-02-26T12:20:36;9.71;109.87
61641;HTU21D;62201;49.966;8.342;2024-02-26T12:23:03;9.65;109.17
61641;HTU21D;62201;49.966;8.342;2024-02-26T12:25:30;9.55;109.68
61641;HTU21D;62201;49.966;8.342;2024-02-26T12:27:56;9.62;109.82
61641;HTU21D;62201;49.966;8.342;2024-02-26T12:30:23;9.49;110.12
61641;HTU21D;62201;49.966;8.342;2024-02-26T12:32:50;10.07;108.33
61641;HTU21D;62201;49.966;8.342;2024-02-26T12:35:16;9.93;107.40
61641;HTU21D;62201;49.966;8.342;2024-02-26T12:37:45;10.00;107.16
61641;HTU21D;62201;49.966;8.342;2024-02-26T12:40:11;10.04;107.59
61641;HTU21D;62201;49.966;8.342;2024-02-26T12:42:39;10.53;105.67
61641;HTU21D;62201;49.966;8.342;2024-02-26T12:45:07;10.51;105.16
61641;HTU21D;62201;49.966;8.342;2024-02-26T12:47:36;10.86;103.70
61641;HTU21D;62201;49.966;8.342;2024-02-26T12:50:03;11.07;102.02
61641;HTU21D;62201;49.966;8.342;2024-02-26T12:52:33;10.82;102.67
61641;HTU21D;62201;49.966;8.342;2024-02-26T12:54:59;10.79;103.56
61641;HTU21D;62201;49.966;8.342;2024-02-26T12:57:24;10.82;102.88
61641;HTU21D;62201;49.966;8.342;2024-02-26T12:59:50;10.58;103.41
61641;HTU21D;62201;49.966;8.342;2024-02-26T13:02:16;10.78;102.72
61641;HTU21D;62201;49.966;8.342;2024-02-26T13:04:42;10.95;102.86
61641;HTU21D;62201;49.966;8.342;2024-02-26T13:07:07;10.55;103.70
61641;HTU21D;62201;49.966;8.342;2024-02-26T13:09:34;11.37;100.87
61641;HTU21D;62201;49.966;8.342;2024-02-26T13:12:06;11.18;99.59
61641;HTU21D;62201;49.966;8.342;2024-02-26T13:14:32;10.72;101.25
61641;HTU21D;62201;49.966;8.342;2024-02-26T13:16:59;10.74;100.80
61641;HTU21D;62201;49.966;8.342;2024-02-26T13:19:25;10.81;100.88
61641;HTU21D;62201;49.966;8.342;2024-02-26T13:21:51;10.84;100.74
61641;HTU21D;62201;49.966;8.342;2024-02-26T13:24:17;10.93;100.34
61641;HTU21D;62201;49.966;8.342;2024-02-26T13:26:45;10.82;101.47
61641;HTU21D;62201;49.966;8.342;2024-02-26T13:29:17;11.04;100.06
61641;HTU21D;62201;49.966;8.342;2024-02-26T13:31:42;10.86;100.48
61641;HTU21D;62201;49.966;8.342;2024-02-26T13:34:08;10.98;100.14
61641;HTU21D;62201;49.966;8.342;2024-02-26T13:36:33;11.26;99.79
61641;HTU21D;62201;49.966;8.342;2024-02-26T13:38:59;10.89;100.43
61641;HTU21D;62201;49.966;8.342;2024-02-26T13:41:25;10.94;99.19
61641;HTU21D;62201;49.966;8.342;2024-02-26T13:43:51;11.46;99.11
61641;HTU21D;62201;49.966;8.342;2024-02-26T13:46:17;11.11;98.73
61641;HTU21D;62201;49.966;8.342;2024-02-26T13:48:42;10.97;99.83
61641;HTU21D;62201;49.966;8.342;2024-02-26T13:51:09;11.02;99.36
61641;HTU21D;62201;49.966;8.342;2024-02-26T13:53:34;10.72;100.55
61641;HTU21D;62201;49.966;8.342;2024-02-26T13:56:00;10.55;101.32
61641;HTU21D;62201;49.966;8.342;2024-02-26T13:58:26;11.01;100.35
61641;HTU21D;62201;49.966;8.342;2024-02-26T14:00:52;10.68;101.64
61641;HTU21D;62201;49.966;8.342;2024-02-26T14:03:19;10.71;101.25
61641;HTU21D;62201;49.966;8.342;2024-02-26T14:05:45;10.62;100.59
61641;HTU21D;62201;49.966;8.342;2024-02-26T14:08:10;10.43;101.64
61641;HTU21D;62201;49.966;8.342;2024-02-26T14:10:36;10.71;101.38
61641;HTU21D;62201;49.966;8.342;2024-02-26T14:13:03;10.70;101.03
61641;HTU21D;62201;49.966;8.342;2024-02-26T14:15:28;10.43;101.32
61641;HTU21D;62201;49.966;8.342;2024-02-26T14:17:54;10.41;101.09
61641;HTU21D;62201;49.966;8.342;2024-02-26T14:20:22;10.53;101.64
61641;HTU21D;62201;49.966;8.342;2024-02-26T14:22:48;10.48;101.67
61641;HTU21D;62201;49.966;8.342;2024-02-26T14:25:14;10.46;102.15
61641;HTU21D;62201;49.966;8.342;2024-02-26T14:27:39;10.50;102.23
61641;HTU21D;62201;49.966;8.342;2024-02-26T14:30:05;10.41;102.16
61641;HTU21D;62201;49.966;8.342;2024-02-26T14:32:31;10.56;102.21
61641;HTU21D;62201;49.966;8.342;2024-02-26T14:35:00;10.55;102.00
61641;HTU21D;62201;49.966;8.342;2024-02-26T14:37:25;10.40;102.26
61641;HTU21D;62201;49.966;8.342;2024-02-26T14:39:51;10.48;101.64
61641;HTU21D;62201;49.966;8.342;2024-02-26T14:42:18;10.70;101.42
61641;HTU21D;62201;49.966;8.342;2024-02-26T14:44:43;10.41;102.15
61641;HTU21D;62201;49.966;8.342;2024-02-26T14:47:09;10.46;101.97
61641;HTU21D;62201;49.966;8.342;2024-02-26T14:49:34;10.59;101.56
61641;HTU21D;62201;49.966;8.342;2024-02-26T14:52:00;10.50;101.83
61641;HTU21D;62201;49.966;8.342;2024-02-26T14:54:25;10.49;102.11
61641;HTU21D;62201;49.966;8.342;2024-02-26T14:56:51;10.68;101.42
61641;HTU21D;62201;49.966;8.342;2024-02-26T14:59:16;10.56;102.11
61641;HTU21D;62201;49.966;8.342;2024-02-26T15:01:41;10.59;102.29
61641;HTU21D;62201;49.966;8.342;2024-02-26T15:04:07;10.42;102.16
61641;HTU21D;62201;49.966;8.342;2024-02-26T15:06:32;10.55;101.79
61641;HTU21D;62201;49.966;8.342;2024-02-26T15:08:59;10.57;101.95
61641;HTU21D;62201;49.966;8.342;2024-02-26T15:11:24;10.42;102.00
61641;HTU21D;62201;49.966;8.342;2024-02-26T15:13:50;10.49;101.70
61641;HTU21D;62201;49.966;8.342;2024-02-26T15:16:19;10.52;101.24